createdAt,value
2023-05-02T00:00:18.463Z,0.40
2023-05-02T00:02:47.440Z,0.50
2023-05-02T00:05:16.114Z,0.50
2023-05-02T00:07:44.966Z,0.43
2023-05-02T00:10:13.964Z,0.40
2023-05-02T00:12:42.734Z,0.40
2023-05-02T00:15:12.847Z,0.50
2023-05-02T00:17:43.584Z,0.30
2023-05-02T00:20:12.774Z,0.40
2023-05-02T00:22:41.577Z,0.50
2023-05-02T00:25:16.059Z,0.30
2023-05-02T00:27:46.681Z,0.20
2023-05-02T00:30:18.091Z,0.40
2023-05-02T00:32:46.833Z,0.40
2023-05-02T00:35:15.683Z,0.50
2023-05-02T00:37:44.375Z,0.30
2023-05-02T00:40:13.638Z,0.47
2023-05-02T00:42:42.315Z,0.40
2023-05-02T00:45:12.398Z,0.40
2023-05-02T00:47:42.480Z,0.40
2023-05-02T00:50:11.519Z,0.40
2023-05-02T00:52:40.182Z,0.43
2023-05-02T00:55:09.265Z,0.40
2023-05-02T00:57:38.050Z,0.40
2023-05-02T01:00:07.266Z,0.40
2023-05-02T01:02:40.935Z,0.43
2023-05-02T01:05:16.988Z,0.50
2023-05-02T01:07:50.779Z,0.40
2023-05-02T01:10:24.565Z,0.60
2023-05-02T01:13:00.838Z,0.50
2023-05-02T01:15:29.760Z,0.60
2023-05-02T01:17:59.312Z,0.68
2023-05-02T01:20:30.699Z,0.60
2023-05-02T01:23:00.617Z,0.50
2023-05-02T01:25:33.792Z,0.60
2023-05-02T01:28:07.467Z,0.50
2023-05-02T01:30:39.013Z,0.57
2023-05-02T01:33:08.139Z,0.60
2023-05-02T01:35:37.683Z,0.60
2023-05-02T01:38:07.899Z,0.60
2023-05-02T01:40:36.805Z,0.60
2023-05-02T01:43:06.130Z,0.57
2023-05-02T01:45:37.523Z,0.50
2023-05-02T01:48:09.728Z,0.50
2023-05-02T01:50:39.423Z,0.60
2023-05-02T01:53:09.551Z,0.50
2023-05-02T01:55:38.630Z,0.60
2023-05-02T01:58:08.390Z,0.50
2023-05-02T02:00:39.043Z,0.60
2023-05-02T02:03:09.785Z,0.57
2023-05-02T02:05:39.112Z,0.60
2023-05-02T02:08:07.819Z,0.60
2023-05-02T02:10:38.608Z,0.70
2023-05-02T02:13:09.463Z,0.60
2023-05-02T02:15:40.438Z,0.70
2023-05-02T02:18:12.263Z,0.60
2023-05-02T02:20:41.138Z,0.80
2023-05-02T02:23:10.378Z,0.80
2023-05-02T02:25:39.499Z,0.60
2023-05-02T02:28:08.910Z,0.63
2023-05-02T02:30:37.622Z,0.60
2023-05-02T02:33:06.376Z,0.60
2023-05-02T02:35:39.632Z,0.60
2023-05-02T02:38:13.524Z,0.50
2023-05-02T02:40:46.676Z,0.50
2023-05-02T02:43:21.300Z,0.70
2023-05-02T02:45:54.282Z,0.60
2023-05-02T02:48:28.686Z,0.77
2023-05-02T02:51:05.438Z,0.50
2023-05-02T02:53:36.027Z,0.60
2023-05-02T02:56:11.559Z,0.57
2023-05-02T02:58:44.703Z,0.63
2023-05-02T03:01:17.071Z,0.63
2023-05-02T03:03:47.353Z,0.45
2023-05-02T03:06:17.988Z,0.80
2023-05-02T03:08:46.899Z,0.68
2023-05-02T03:11:20.190Z,0.60
2023-05-02T03:13:49.598Z,0.50
2023-05-02T03:16:36.601Z,0.50
2023-05-02T03:19:08.381Z,0.60
2023-05-02T03:21:38.595Z,0.60
2023-05-02T03:24:13.955Z,0.50
2023-05-02T03:26:42.702Z,0.50
2023-05-02T03:29:14.105Z,0.40
2023-05-02T03:31:44.327Z,0.63
2023-05-02T03:34:14.021Z,0.50
2023-05-02T03:36:45.354Z,0.75
2023-05-02T03:39:14.123Z,1.15
2023-05-02T03:41:43.956Z,0.60
2023-05-02T03:44:16.583Z,0.55
2023-05-02T03:46:45.773Z,0.60
2023-05-02T03:49:14.865Z,0.50
2023-05-02T03:51:47.612Z,0.50
2023-05-02T03:54:21.214Z,0.70
2023-05-02T03:56:49.996Z,0.70
2023-05-02T03:59:27.377Z,0.70
2023-05-02T04:01:56.947Z,0.60
2023-05-02T04:04:34.910Z,0.73
2023-05-02T04:07:05.604Z,0.70
2023-05-02T04:09:34.266Z,0.80
2023-05-02T04:12:08.952Z,0.80
2023-05-02T04:14:41.193Z,0.80
2023-05-02T04:17:10.414Z,0.80
2023-05-02T04:19:46.964Z,0.77
2023-05-02T04:22:18.197Z,0.80
2023-05-02T04:24:52.209Z,0.75
2023-05-02T04:27:20.941Z,0.90
2023-05-02T04:29:50.328Z,1.00
2023-05-02T04:32:20.836Z,1.23
2023-05-02T04:34:50.698Z,1.30
2023-05-02T04:37:21.586Z,1.00
2023-05-02T04:39:51.234Z,0.80
2023-05-02T04:42:24.156Z,0.70
2023-05-02T04:45:18.338Z,0.90
2023-05-02T04:47:47.936Z,0.70
2023-05-02T04:50:16.866Z,0.90
2023-05-02T04:52:47.600Z,1.00
2023-05-02T04:55:16.967Z,1.00
2023-05-02T04:57:47.048Z,2.00
2023-05-02T05:00:17.984Z,1.20
2023-05-02T05:02:46.903Z,1.10
2023-05-02T05:05:16.693Z,1.25
2023-05-02T05:07:47.678Z,1.00
2023-05-02T05:10:18.385Z,0.80
2023-05-02T05:12:49.462Z,1.00
2023-05-02T05:15:20.648Z,1.45
2023-05-02T05:17:53.578Z,1.00
2023-05-02T05:20:22.792Z,1.20
2023-05-02T05:22:56.001Z,1.17
2023-05-02T05:25:25.721Z,1.33
2023-05-02T05:27:55.927Z,1.10
2023-05-02T05:30:25.525Z,1.15
2023-05-02T05:32:54.626Z,1.17
2023-05-02T05:35:23.693Z,1.30
2023-05-02T05:37:52.474Z,1.00
2023-05-02T05:40:22.740Z,1.10
2023-05-02T05:42:56.875Z,1.10
2023-05-02T05:45:30.569Z,1.23
2023-05-02T05:47:59.358Z,1.10
2023-05-02T05:50:31.231Z,1.15
2023-05-02T05:53:00.006Z,1.20
2023-05-02T05:55:30.839Z,1.10
2023-05-02T05:57:59.657Z,1.15
2023-05-02T06:00:28.706Z,1.30
2023-05-02T06:02:57.776Z,1.40
2023-05-02T06:05:32.197Z,1.20
2023-05-02T06:08:01.303Z,1.40
2023-05-02T06:10:32.952Z,1.48
2023-05-02T06:13:01.776Z,1.60
2023-05-02T06:15:37.515Z,1.30
2023-05-02T06:18:07.498Z,1.55
2023-05-02T06:20:37.872Z,1.40
2023-05-02T06:23:06.468Z,1.40
2023-05-02T06:25:38.934Z,1.20
2023-05-02T06:28:09.515Z,1.30
2023-05-02T06:30:38.310Z,1.38
2023-05-02T06:33:07.575Z,1.40
2023-05-02T06:35:36.345Z,1.30
2023-05-02T06:38:04.968Z,1.30
2023-05-02T06:40:33.812Z,1.25
2023-05-02T06:43:03.890Z,1.58
2023-05-02T06:45:34.508Z,1.10
2023-05-02T06:48:03.318Z,1.30
2023-05-02T06:50:31.977Z,1.17
2023-05-02T06:53:00.800Z,1.30
2023-05-02T06:55:29.520Z,1.25
2023-05-02T06:57:58.300Z,1.15
2023-05-02T07:00:28.453Z,1.40
2023-05-02T07:02:57.340Z,1.20
2023-05-02T07:05:26.048Z,1.40
2023-05-02T07:07:54.736Z,1.40
2023-05-02T07:10:23.354Z,1.40
2023-05-02T07:12:52.183Z,1.60
2023-05-02T07:15:20.984Z,1.10
2023-05-02T07:17:51.343Z,1.50
2023-05-02T07:20:20.101Z,1.50
2023-05-02T07:22:48.877Z,1.40
2023-05-02T07:25:17.513Z,1.50
2023-05-02T07:27:46.411Z,1.33
2023-05-02T07:30:15.468Z,1.45
2023-05-02T07:32:44.210Z,1.15
2023-05-02T07:35:14.317Z,1.30
2023-05-02T07:37:43.185Z,1.10
2023-05-02T07:40:12.190Z,1.13
2023-05-02T07:42:41.894Z,1.40
2023-05-02T07:45:11.163Z,1.08
2023-05-02T07:47:39.984Z,1.27
2023-05-02T07:50:09.171Z,1.02
2023-05-02T07:52:39.284Z,1.08
2023-05-02T07:55:08.539Z,1.13
2023-05-02T07:57:37.193Z,0.98
2023-05-02T08:00:08.020Z,1.20
2023-05-02T08:02:43.661Z,0.90
2023-05-02T08:05:12.666Z,1.15
2023-05-02T08:07:42.817Z,1.08
2023-05-02T08:10:12.086Z,1.20
2023-05-02T08:12:41.409Z,2.05
2023-05-02T08:15:12.207Z,1.00
2023-05-02T08:17:41.065Z,1.05
2023-05-02T08:20:10.225Z,1.15
2023-05-02T08:22:38.853Z,1.02
2023-05-02T08:25:09.276Z,1.05
2023-05-02T08:27:38.013Z,1.00
2023-05-02T08:30:07.579Z,0.90
2023-05-02T08:32:37.761Z,1.00
2023-05-02T08:35:07.017Z,1.20
2023-05-02T08:37:36.421Z,1.10
2023-05-02T08:40:05.259Z,0.98
2023-05-02T08:42:35.651Z,0.88
2023-05-02T08:45:04.536Z,1.15
2023-05-02T08:47:34.249Z,1.15
2023-05-02T08:50:03.457Z,1.13
2023-05-02T08:52:34.232Z,1.48
2023-05-02T08:55:03.779Z,1.00
2023-05-02T08:57:33.227Z,1.20
2023-05-02T09:00:03.376Z,1.60
2023-05-02T09:02:41.441Z,1.45
2023-05-02T09:05:12.001Z,1.20
2023-05-02T09:07:47.739Z,1.17
2023-05-02T09:10:16.583Z,1.40
2023-05-02T09:12:45.404Z,1.35
2023-05-02T09:15:19.191Z,1.30
2023-05-02T09:17:50.417Z,1.23
2023-05-02T09:20:19.133Z,1.40
2023-05-02T09:22:51.729Z,1.25
2023-05-02T09:25:21.437Z,1.25
2023-05-02T09:27:54.323Z,0.95
2023-05-02T09:30:25.803Z,1.17
2023-05-02T09:32:55.980Z,1.20
2023-05-02T09:35:25.187Z,1.10
2023-05-02T09:37:54.769Z,1.13
2023-05-02T09:40:24.349Z,1.10
2023-05-02T09:42:53.116Z,1.33
2023-05-02T09:45:22.936Z,1.00
2023-05-02T09:47:53.905Z,1.35
2023-05-02T09:50:35.948Z,1.13
2023-05-02T09:53:06.104Z,1.00
2023-05-02T09:55:34.869Z,1.00
2023-05-02T09:58:04.076Z,1.08
2023-05-02T10:00:42.795Z,1.20
2023-05-02T10:03:13.307Z,1.30
2023-05-02T10:05:42.967Z,1.20
2023-05-02T10:08:11.651Z,1.00
2023-05-02T10:10:41.133Z,1.08
2023-05-02T10:13:10.543Z,1.23
2023-05-02T10:15:43.916Z,0.98
2023-05-02T10:18:15.972Z,1.30
2023-05-02T10:20:46.139Z,1.10
2023-05-02T10:23:15.161Z,1.17
2023-05-02T10:25:44.107Z,1.10
2023-05-02T10:28:13.025Z,1.10
2023-05-02T10:30:42.762Z,1.15
2023-05-02T10:33:11.520Z,1.10
2023-05-02T10:35:41.866Z,1.25
2023-05-02T10:38:10.530Z,0.82
2023-05-02T10:40:40.686Z,1.33
2023-05-02T10:43:09.691Z,1.20
2023-05-02T10:45:40.571Z,1.10
2023-05-02T10:48:15.899Z,1.40
2023-05-02T10:50:47.342Z,1.23
2023-05-02T10:53:29.315Z,1.65
2023-05-02T10:56:11.112Z,1.05
2023-05-02T10:58:39.846Z,1.08
2023-05-02T11:01:42.167Z,1.02
2023-05-02T11:04:11.934Z,0.93
2023-05-02T11:06:55.471Z,0.93
2023-05-02T11:09:35.238Z,1.08
2023-05-02T11:12:04.823Z,1.45
2023-05-02T11:14:48.850Z,1.00
2023-05-02T11:17:20.162Z,1.40
2023-05-02T11:20:07.667Z,1.20
2023-05-02T11:22:36.607Z,1.10
2023-05-02T11:25:06.783Z,1.20
2023-05-02T11:27:43.937Z,1.10
2023-05-02T11:30:13.767Z,1.17
2023-05-02T11:33:00.432Z,1.50
2023-05-02T11:35:31.275Z,1.02
2023-05-02T11:38:00.914Z,1.27
2023-05-02T11:40:31.376Z,0.95
2023-05-02T11:43:01.276Z,1.20
2023-05-02T11:45:36.276Z,1.00
2023-05-02T11:48:07.004Z,1.00
2023-05-02T11:50:36.260Z,1.02
2023-05-02T11:53:05.588Z,1.00
2023-05-02T11:55:35.653Z,1.00
2023-05-02T11:58:04.338Z,0.90
2023-05-02T12:00:33.098Z,0.80
2023-05-02T12:03:01.967Z,0.80
2023-05-02T12:05:31.560Z,0.80
2023-05-02T12:08:01.249Z,0.90
2023-05-02T12:10:39.223Z,0.77
2023-05-02T12:13:08.891Z,0.75
2023-05-02T12:15:39.017Z,1.00
2023-05-02T12:18:08.758Z,0.70
2023-05-02T12:20:38.635Z,0.95
2023-05-02T12:23:08.146Z,1.20
2023-05-02T12:25:40.535Z,1.00
2023-05-02T12:28:09.769Z,1.23
2023-05-02T12:30:39.841Z,0.90
2023-05-02T12:33:08.717Z,0.82
2023-05-02T12:35:37.757Z,0.93
2023-05-02T12:38:10.466Z,0.80
2023-05-02T12:40:41.185Z,0.82
2023-05-02T12:43:10.770Z,0.70
2023-05-02T12:45:39.924Z,0.65
2023-05-02T12:48:25.085Z,0.75
2023-05-02T12:50:54.745Z,0.95
2023-05-02T12:53:43.237Z,1.00
2023-05-02T12:56:13.573Z,0.93
2023-05-02T12:58:43.119Z,0.70
2023-05-02T13:01:12.209Z,0.80
2023-05-02T13:03:40.983Z,0.70
2023-05-02T13:06:09.986Z,0.82
2023-05-02T13:08:39.358Z,0.70
2023-05-02T13:11:08.020Z,1.10
2023-05-02T13:13:38.180Z,1.05
2023-05-02T13:16:07.098Z,0.80
2023-05-02T13:18:36.132Z,1.20
2023-05-02T13:21:04.996Z,0.80
2023-05-02T13:23:33.743Z,0.95
2023-05-02T13:26:02.457Z,1.23
2023-05-02T13:28:33.352Z,1.00
2023-05-02T13:31:03.716Z,0.80
2023-05-02T13:33:32.437Z,1.00
2023-05-02T13:36:01.361Z,0.82
2023-05-02T13:38:30.197Z,1.10
2023-05-02T13:40:58.910Z,0.63
2023-05-02T13:43:27.610Z,0.90
2023-05-02T13:45:56.267Z,0.60
2023-05-02T13:48:26.434Z,0.73
2023-05-02T13:50:55.196Z,0.70
2023-05-02T13:53:23.886Z,0.77
2023-05-02T13:55:52.639Z,0.75
2023-05-02T13:58:21.936Z,0.70
2023-05-02T14:00:50.818Z,0.63
2023-05-02T14:03:19.767Z,0.70
2023-05-02T14:05:49.956Z,0.73
2023-05-02T14:08:19.314Z,0.90
2023-05-02T14:10:48.015Z,2.03
2023-05-02T14:13:16.774Z,0.75
2023-05-02T14:15:45.584Z,0.73
2023-05-02T14:18:14.391Z,0.60
2023-05-02T14:20:43.200Z,0.73
2023-05-02T14:23:13.356Z,1.00
2023-05-02T14:25:42.116Z,0.57
2023-05-02T14:28:10.863Z,1.02
2023-05-02T14:30:39.607Z,0.57
2023-05-02T14:33:08.331Z,0.50
2023-05-02T14:35:37.138Z,0.50
2023-05-02T14:38:05.757Z,0.60
2023-05-02T14:40:35.952Z,0.80
2023-05-02T14:43:04.937Z,0.70
2023-05-02T14:45:33.670Z,0.60
2023-05-02T14:48:02.434Z,0.60
2023-05-02T14:50:31.541Z,1.00
2023-05-02T14:53:00.164Z,0.50
2023-05-02T14:55:29.130Z,1.23
2023-05-02T14:57:59.323Z,0.50
2023-05-02T15:00:27.931Z,0.47
2023-05-02T15:02:56.737Z,0.80
2023-05-02T15:05:25.585Z,0.40
2023-05-02T15:07:54.244Z,0.65
2023-05-02T15:10:23.056Z,0.50
2023-05-02T15:12:51.987Z,0.60
2023-05-02T15:15:25.114Z,0.50
2023-05-02T15:17:54.371Z,0.32
2023-05-02T15:20:23.401Z,0.50
2023-05-02T15:22:52.108Z,0.50
2023-05-02T15:25:20.798Z,0.50
2023-05-02T15:27:49.625Z,0.60
2023-05-02T15:30:18.464Z,0.60
2023-05-02T15:32:49.452Z,0.43
2023-05-02T15:35:18.376Z,0.60
2023-05-02T15:37:47.086Z,0.60
2023-05-02T15:40:15.727Z,0.80
2023-05-02T15:42:44.486Z,1.10
2023-05-02T15:45:14.576Z,0.55
2023-05-02T15:47:43.448Z,0.50
2023-05-02T15:50:14.121Z,0.70
2023-05-02T15:52:42.849Z,0.60
2023-05-02T15:55:11.693Z,0.50
2023-05-02T15:57:40.489Z,0.50
2023-05-02T16:00:16.002Z,0.70
2023-05-02T16:02:45.179Z,0.95
2023-05-02T16:05:15.454Z,0.60
2023-05-02T16:07:44.256Z,0.93
2023-05-02T16:10:13.320Z,0.50
2023-05-02T16:12:42.053Z,0.60
2023-05-02T16:15:11.144Z,0.50
2023-05-02T16:17:39.853Z,0.70
2023-05-02T16:20:10.029Z,0.70
2023-05-02T16:22:41.227Z,0.68
2023-05-02T16:25:10.128Z,0.40
2023-05-02T16:27:38.987Z,0.80
2023-05-02T16:30:08.422Z,0.50
2023-05-02T16:32:40.672Z,0.55
2023-05-02T16:35:13.115Z,0.60
2023-05-02T16:37:43.618Z,0.60
2023-05-02T16:40:12.682Z,0.60
2023-05-02T16:42:41.525Z,0.60
2023-05-02T16:45:11.094Z,0.60
2023-05-02T16:47:40.196Z,0.70
2023-05-02T16:50:09.572Z,0.60
2023-05-02T16:52:38.602Z,0.70
2023-05-02T16:55:08.887Z,0.60
2023-05-02T16:57:39.104Z,0.70
2023-05-02T17:00:11.097Z,0.60
2023-05-02T17:02:40.029Z,0.70
2023-05-02T17:05:09.611Z,0.65
2023-05-02T17:07:38.318Z,0.68
2023-05-02T17:10:09.243Z,1.02
2023-05-02T17:12:37.951Z,0.60
2023-05-02T17:15:07.511Z,0.68
2023-05-02T17:17:36.616Z,1.00
2023-05-02T17:20:06.417Z,1.13
2023-05-02T17:22:35.700Z,0.70
2023-05-02T17:25:04.409Z,0.80
2023-05-02T17:27:34.647Z,0.60
2023-05-02T17:30:03.539Z,0.60
2023-05-02T17:32:34.892Z,0.60
2023-05-02T17:35:03.880Z,0.60
2023-05-02T17:37:33.690Z,0.82
2023-05-02T17:40:02.610Z,0.90
2023-05-02T17:42:31.828Z,0.70
2023-05-02T17:45:02.537Z,0.60
2023-05-02T17:47:31.282Z,0.68
2023-05-02T17:50:02.764Z,0.70
2023-05-02T17:52:31.693Z,0.85
2023-05-02T17:55:00.576Z,0.60
2023-05-02T17:57:29.276Z,0.70
2023-05-02T17:59:59.738Z,1.15
2023-05-02T18:02:30.380Z,0.90
2023-05-02T18:05:00.780Z,0.80
2023-05-02T18:07:30.118Z,1.02
2023-05-02T18:10:02.321Z,1.10
2023-05-02T18:12:31.546Z,1.65
2023-05-02T18:15:00.492Z,1.02
2023-05-02T18:17:31.138Z,0.80
2023-05-02T18:20:00.445Z,1.13
2023-05-02T18:22:29.451Z,0.80
2023-05-02T18:24:58.279Z,0.90
2023-05-02T18:27:27.249Z,0.98
2023-05-02T18:29:56.027Z,0.80
2023-05-02T18:32:25.920Z,0.90
2023-05-02T18:35:02.289Z,1.05
2023-05-02T18:37:32.159Z,1.00
2023-05-02T18:40:00.959Z,1.20
2023-05-02T18:42:29.765Z,0.80
2023-05-02T18:44:58.625Z,0.80
2023-05-02T18:47:27.377Z,0.80
2023-05-02T18:49:59.414Z,1.10
2023-05-02T18:52:31.185Z,0.82
2023-05-02T18:55:02.013Z,1.13
2023-05-02T18:57:33.768Z,1.60
2023-05-02T19:00:06.428Z,1.30
2023-05-02T19:02:35.784Z,1.42
2023-05-02T19:05:07.329Z,1.60
2023-05-02T19:07:38.498Z,1.48
2023-05-02T19:10:07.752Z,1.30
2023-05-02T19:12:36.490Z,1.00
2023-05-02T19:15:06.662Z,1.05
2023-05-02T19:17:35.672Z,1.17
2023-05-02T19:20:04.701Z,1.20
2023-05-02T19:22:34.611Z,0.98
2023-05-02T19:25:04.949Z,1.35
2023-05-02T19:27:33.809Z,1.00
2023-05-02T19:30:02.494Z,0.95
2023-05-02T19:32:31.476Z,1.27
2023-05-02T19:35:04.340Z,1.13
2023-05-02T19:37:33.191Z,0.90
2023-05-02T19:40:01.871Z,1.00
2023-05-02T19:42:32.168Z,1.00
2023-05-02T19:45:01.144Z,1.00
2023-05-02T19:47:32.548Z,0.93
2023-05-02T19:50:01.320Z,1.25
2023-05-02T19:52:30.023Z,0.95
2023-05-02T19:54:58.851Z,0.90
2023-05-02T19:57:27.645Z,1.05
2023-05-02T19:59:57.806Z,1.20
2023-05-02T20:02:27.047Z,0.98
2023-05-02T20:04:56.052Z,1.10
2023-05-02T20:07:24.843Z,0.90
2023-05-02T20:09:53.766Z,0.88
2023-05-02T20:12:22.389Z,0.90
2023-05-02T20:14:53.095Z,1.02
2023-05-02T20:17:23.308Z,0.88
2023-05-02T20:19:52.089Z,0.80
2023-05-02T20:22:20.730Z,0.90
2023-05-02T20:24:49.512Z,0.70
2023-05-02T20:27:18.141Z,0.93
2023-05-02T20:29:46.871Z,1.10
2023-05-02T20:32:16.874Z,1.20
2023-05-02T20:34:47.352Z,0.93
2023-05-02T20:37:16.198Z,1.05
2023-05-02T20:39:45.088Z,0.93
2023-05-02T20:42:13.769Z,1.10
2023-05-02T20:44:42.709Z,1.38
2023-05-02T20:47:11.434Z,1.13
2023-05-02T20:49:40.104Z,1.30
2023-05-02T20:52:10.497Z,1.10
2023-05-02T20:54:39.210Z,1.17
2023-05-02T20:57:07.867Z,1.23
2023-05-02T20:59:36.524Z,1.50
2023-05-02T21:02:05.264Z,1.25
2023-05-02T21:04:34.133Z,0.93
2023-05-02T21:07:03.101Z,1.95
2023-05-02T21:09:33.427Z,0.73
2023-05-02T21:12:02.567Z,1.10
2023-05-02T21:14:31.370Z,1.00
2023-05-02T21:16:59.964Z,0.90
2023-05-02T21:19:28.640Z,0.82
2023-05-02T21:21:57.486Z,1.33
2023-05-02T21:24:26.151Z,1.00
2023-05-02T21:26:56.285Z,0.90
2023-05-02T21:29:24.970Z,0.70
2023-05-02T21:31:54.888Z,1.00
2023-05-02T21:34:23.934Z,0.90
2023-05-02T21:36:52.593Z,0.90
2023-05-02T21:39:21.276Z,0.70
2023-05-02T21:41:50.223Z,1.00
2023-05-02T21:44:20.268Z,0.82
2023-05-02T21:46:49.165Z,0.90
2023-05-02T21:49:17.807Z,0.65
2023-05-02T21:51:46.450Z,0.77
2023-05-02T21:54:15.093Z,0.70
2023-05-02T21:56:44.056Z,0.85
2023-05-02T21:59:12.671Z,0.80
2023-05-02T22:01:42.902Z,0.70
2023-05-02T22:04:11.525Z,0.70
2023-05-02T22:06:40.265Z,1.00
2023-05-02T22:09:10.359Z,0.80
2023-05-02T22:11:39.324Z,0.95
2023-05-02T22:14:08.008Z,0.90
2023-05-02T22:16:37.427Z,1.05
2023-05-02T22:19:07.532Z,0.70
2023-05-02T22:21:36.218Z,0.80
2023-05-02T22:24:04.898Z,0.70
2023-05-02T22:26:33.535Z,1.00
2023-05-02T22:29:02.272Z,0.88
2023-05-02T22:31:31.371Z,0.70
2023-05-02T22:34:00.072Z,0.85
2023-05-02T22:36:30.195Z,0.82
2023-05-02T22:38:58.951Z,0.55
2023-05-02T22:41:27.646Z,0.80
2023-05-02T22:43:56.477Z,0.90
2023-05-02T22:46:25.317Z,0.80
2023-05-02T22:48:56.780Z,0.95
2023-05-02T22:51:27.279Z,0.77
2023-05-02T22:53:57.425Z,0.80
2023-05-02T22:56:26.362Z,0.70
2023-05-02T22:58:55.088Z,0.80
2023-05-02T23:01:23.747Z,1.15
2023-05-02T23:03:52.563Z,0.80
2023-05-02T23:06:21.293Z,0.80
2023-05-02T23:08:50.020Z,0.77
2023-05-02T23:11:19.966Z,0.82
2023-05-02T23:13:48.899Z,1.00
2023-05-02T23:16:17.827Z,0.70
2023-05-02T23:18:46.599Z,0.80
2023-05-02T23:21:18.913Z,0.73
2023-05-02T23:23:47.549Z,0.90
2023-05-02T23:26:16.270Z,1.00
2023-05-02T23:28:46.371Z,0.80
2023-05-02T23:31:15.192Z,0.70
2023-05-02T23:33:43.927Z,0.70
2023-05-02T23:36:12.541Z,0.85
2023-05-02T23:38:42.096Z,1.10
2023-05-02T23:41:10.754Z,0.90
2023-05-02T23:43:39.465Z,0.70
2023-05-02T23:46:09.472Z,1.00
2023-05-02T23:48:38.136Z,0.90
2023-05-02T23:51:06.900Z,0.90
2023-05-02T23:53:35.596Z,0.90
2023-05-02T23:56:04.242Z,0.90
2023-05-02T23:58:33.031Z,0.85
